Time;durP1;ratioP1;P1;durP2;ratioP2;P2;SDS_P1;SDS_P2;PMS_P1;PMS_P2;Temp;Humidity;BMP_temperature;BMP_pressure;BME280_temperature;BME280_humidity;BME280_pressure;Samples;Min_cycle;Max_cycle;Signal;HPM_P1;HPM_P2
2022/02/05 00:02:32;;;;;;;23.25;10.90;;;;;;;0.21;90.33;97502.66;5016996;28;20043;-79
2022/02/05 00:04:59;;;;;;;17.52;7.90;;;;;;;0.30;89.27;97506.84;5014950;28;20021;-79
2022/02/05 00:07:27;;;;;;;22.90;10.43;;;;;;;0.26;89.01;97511.31;5014284;28;20067;-79
2022/02/05 00:40:04;;;;;;;19.20;9.52;;;;;;;-0.23;95.26;97505.34;5008788;28;20092;-82
2022/02/05 00:45:06;;;;;;;22.13;9.95;;;;;;;-0.26;95.23;97485.25;5000024;28;19944;-82
2022/02/05 00:47:32;;;;;;;30.13;14.25;;;;;;;-0.14;94.55;97499.91;5009688;28;20030;-82
2022/02/05 00:50:00;;;;;;;34.40;16.65;;;;;;;0.09;91.08;97487.16;4986108;28;20053;-84
2022/02/05 00:52:27;;;;;;;30.08;14.02;;;;;;;0.02;92.15;97490.81;4997705;28;20030;-83
2022/02/05 00:55:04;;;;;;;27.30;13.70;;;;;;;0.01;92.97;97504.84;5013436;28;20059;-81
2022/02/05 00:59:56;;;;;;;25.23;11.10;;;;;;;-0.10;93.37;97497.19;5006615;28;20093;-83
2022/02/05 01:02:23;;;;;;;26.83;12.65;;;;;;;-0.25;94.64;97501.91;4994420;28;20026;-84
2022/02/05 01:04:48;;;;;;;28.55;11.88;;;;;;;-0.34;96.05;97496.84;5011881;28;20029;-84
2022/02/05 01:07:14;;;;;;;23.15;11.52;;;;;;;-0.40;95.95;97494.31;5014236;28;20029;-82
2022/02/05 01:09:42;;;;;;;21.23;10.35;;;;;;;-0.42;95.05;97481.22;4990520;28;20417;-82
2022/02/05 01:12:08;;;;;;;22.95;10.25;;;;;;;-0.41;96.15;97489.97;5009302;28;20022;-82
2022/02/05 01:14:43;;;;;;;26.42;10.52;;;;;;;-0.59;96.74;97478.06;5013956;28;20033;-83
2022/02/05 01:17:11;;;;;;;19.63;9.93;;;;;;;-0.60;98.30;97478.94;5015249;28;20044;-82
2022/02/05 01:22:07;;;;;;;24.50;10.27;;;;;;;-0.56;98.52;97475.38;5011443;28;20033;-82
2022/02/05 01:24:33;;;;;;;20.83;9.27;;;;;;;-0.32;96.15;97479.25;5011650;28;20025;-84
2022/02/05 01:27:08;;;;;;;17.65;7.45;;;;;;;-0.09;93.79;97471.75;5000128;28;20512;-83
2022/02/05 01:32:16;;;;;;;17.58;7.68;;;;;;;-0.03;92.97;97476.88;4993491;28;20025;-83
2022/02/05 01:54:12;;;;;;;22.27;8.43;;;;;;;-0.42;92.38;97467.19;4994918;28;20018;-82
2022/02/05 01:59:24;;;;;;;25.50;11.40;;;;;;;-0.50;95.08;97462.13;4993790;28;20038;-82
2022/02/05 02:15:55;;;;;;;22.42;10.77;;;;;;;0.91;82.88;97462.38;5019666;28;20296;-77
2022/02/05 02:26:01;;;;;;;20.20;9.70;;;;;;;0.59;85.09;97458.78;4978932;28;20457;-76
2022/02/05 02:28:43;;;;;;;22.35;11.10;;;;;;;0.41;87.01;97468.00;4998708;28;20041;-77
2022/02/05 02:31:14;;;;;;;21.83;9.68;;;;;;;0.24;88.05;97457.88;5007906;28;20095;-76
2022/02/05 02:33:45;;;;;;;18.63;9.68;;;;;;;0.31;88.07;97464.72;5004426;28;20457;-77
2022/02/05 02:36:18;;;;;;;24.92;11.25;;;;;;;0.24;89.52;97478.06;5005451;28;20063;-77
2022/02/05 02:38:49;;;;;;;21.80;9.93;;;;;;;0.14;89.60;97453.72;5012496;28;20098;-77
2022/02/05 02:41:26;;;;;;;18.17;8.80;;;;;;;0.21;88.71;97451.84;5008220;28;20109;-76
2022/02/05 02:43:52;;;;;;;15.45;8.35;;;;;;;0.12;89.99;97465.19;5025292;28;20033;-77
2022/02/05 02:46:17;;;;;;;37.90;14.07;;;;;;;0.08;88.61;97455.63;4999024;28;20040;-74
2022/02/05 02:48:46;;;;;;;23.63;9.60;;;;;;;-0.05;88.85;97445.38;5033182;28;20033;-75
2022/02/05 02:59:23;;;;;;;206.95;64.10;;;;;;;-0.02;89.12;97439.19;5010350;28;20512;-76
2022/02/05 03:01:56;;;;;;;;;;;;;;;0.18;88.30;97434.38;5007161;28;20032;-76
2022/02/05 03:04:21;;;;;;;;;;;;;;;0.14;87.99;97432.69;5012205;28;19917;-76
2022/02/05 03:06:47;;;;;;;45.05;17.98;;;;;;;0.14;88.44;97426.56;5014680;28;19947;-76
2022/02/05 03:09:12;;;;;;;47.20;19.23;;;;;;;0.09;89.50;97434.56;4995792;28;20034;-76
2022/02/05 03:11:38;;;;;;;42.00;17.63;;;;;;;0.13;89.61;97428.31;5003873;28;20036;-76
2022/02/05 03:14:03;;;;;;;37.15;16.77;;;;;;;0.01;90.92;97439.13;5003042;28;20395;-76
2022/02/05 03:16:35;;;;;;;32.67;14.05;;;;;;;-0.03;91.28;97432.19;4996780;28;20025;-76
2022/02/05 03:19:10;;;;;;;30.23;13.60;;;;;;;-0.14;91.98;97435.06;4996714;28;20517;-76
2022/02/05 03:21:36;;;;;;;31.30;12.80;;;;;;;-0.06;91.83;97422.63;4996311;28;20316;-76
2022/02/05 03:24:05;;;;;;;24.15;12.95;;;;;;;-0.24;93.17;97436.16;5003790;28;20024;-77
2022/02/05 03:26:33;;;;;;;46.70;20.40;;;;;;;-0.13;93.52;97443.81;5010895;28;20028;-76
2022/02/05 03:28:59;;;;;;;41.95;17.65;;;;;;;-0.19;94.05;97443.97;4998401;28;20046;-76
2022/02/05 03:31:24;;;;;;;37.55;16.38;;;;;;;-0.20;94.21;97440.47;5008764;28;20080;-76
2022/02/05 03:33:50;;;;;;;26.67;12.63;;;;;;;-0.01;92.67;97439.16;5004683;28;20025;-76
2022/02/05 03:36:16;;;;;;;32.85;14.98;;;;;;;0.03;92.96;97439.09;4990377;28;20512;-76
2022/02/05 03:38:41;;;;;;;34.00;15.43;;;;;;;0.06;92.23;97439.91;5006846;28;20029;-76
2022/02/05 03:41:07;;;;;;;55.08;23.90;;;;;;;0.03;93.42;97445.22;5031241;28;20440;-76
2022/02/05 03:43:32;;;;;;;50.15;22.27;;;;;;;0.07;95.12;97454.75;5014539;28;20083;-76
2022/02/05 03:45:58;;;;;;;50.40;20.83;;;;;;;0.07;93.97;97446.00;5009561;28;20017;-76
2022/02/05 03:48:23;;;;;;;62.42;26.08;;;;;;;0.02;94.09;97448.75;5000938;28;20044;-76
2022/02/05 03:50:49;;;;;;;74.53;29.70;;;;;;;-0.04;94.49;97441.88;5011017;28;20029;-75
2022/02/05 03:53:14;;;;;;;69.10;28.48;;;;;;;-0.01;94.61;97454.06;4995306;28;20030;-74
2022/02/05 03:55:45;;;;;;;77.30;32.17;;;;;;;-0.03;93.82;97456.72;5010985;28;20029;-74
2022/02/05 03:58:10;;;;;;;76.60;33.78;;;;;;;-0.06;93.34;97459.41;4990705;28;20029;-76
2022/02/05 04:00:36;;;;;;;93.53;37.03;;;;;;;-0.14;93.17;97456.09;5006484;28;20116;-75
2022/02/05 04:03:02;;;;;;;93.80;36.67;;;;;;;-0.24;94.36;97445.81;5032159;28;20041;-74
2022/02/05 04:05:28;;;;;;;87.70;37.10;;;;;;;-0.23;96.25;97460.69;4984748;28;20026;-75
2022/02/05 04:07:54;;;;;;;95.45;41.05;;;;;;;-0.14;94.68;97455.22;5003150;28;20037;-74
2022/02/05 04:10:27;;;;;;;90.65;39.50;;;;;;;-0.22;95.46;97465.06;5007368;28;20152;-74
2022/02/05 04:16:00;;;;;;;87.85;35.75;;;;;;;-0.21;96.56;97456.25;5002988;28;19921;-76
2022/02/05 04:18:26;;;;;;;70.25;28.02;;;;;;;-0.21;95.68;97448.38;5013024;28;20030;-76
2022/02/05 04:20:52;;;;;;;56.25;24.92;;;;;;;-0.12;94.68;97467.44;5010785;28;20029;-74
2022/02/05 04:23:18;;;;;;;69.03;29.80;;;;;;;-0.20;95.70;97458.84;5002596;28;20524;-75
2022/02/05 04:25:43;;;;;;;64.78;28.55;;;;;;;-0.19;97.26;97460.59;4994658;28;20501;-76
2022/02/05 04:28:09;;;;;;;69.00;27.70;;;;;;;-0.29;97.47;97455.56;5002630;28;20046;-76
2022/02/05 04:30:35;;;;;;;73.55;29.65;;;;;;;-0.29;99.15;97481.84;4999664;28;20029;-76
2022/02/05 04:33:01;;;;;;;68.45;29.88;;;;;;;-0.37;98.57;97468.84;4973447;28;20042;-75
2022/02/05 04:35:27;;;;;;;75.07;33.45;;;;;;;-0.26;98.05;97469.50;5004183;28;20025;-76
2022/02/05 04:37:57;;;;;;;88.57;37.28;;;;;;;-0.28;97.85;97466.06;5001676;28;20037;-77
2022/02/05 04:40:51;;;;;;;77.25;33.28;;;;;;;-0.33;99.02;97467.88;4988068;28;20022;-76
2022/02/05 04:44:20;;;;;;;87.95;35.10;;;;;;;-0.31;98.05;97476.63;4986769;28;20034;-76
2022/02/05 04:53:44;;;;;;;100.57;42.47;;;;;;;-0.17;99.60;97474.56;5011070;28;20029;-75
2022/02/05 04:56:26;;;;;;;105.20;42.65;;;;;;;-0.21;98.74;97477.28;4990980;28;20462;-76
2022/02/05 05:09:57;;;;;;;110.82;45.42;;;;;;;-0.22;98.83;97480.81;4989296;28;20041;-76
2022/02/05 05:12:33;;;;;;;100.70;42.10;;;;;;;-0.12;98.90;97480.56;4988020;28;20041;-76
2022/02/05 05:20:27;;;;;;;90.57;39.17;;;;;;;0.07;96.84;97473.16;5018713;28;20518;-75
2022/02/05 05:22:53;;;;;;;87.78;38.28;;;;;;;0.04;96.85;97462.72;5017352;28;20081;-75
2022/02/05 05:25:21;;;;;;;106.38;43.70;;;;;;;0.45;92.02;97467.91;5001592;28;20026;-75
2022/02/05 05:27:47;;;;;;;88.47;38.95;;;;;;;0.48;91.87;97459.94;5004901;28;20042;-75
2022/02/05 05:30:13;;;;;;;76.22;35.03;;;;;;;0.58;91.37;97473.75;5014618;28;20037;-76
2022/02/05 05:32:39;;;;;;;90.45;41.33;;;;;;;0.69;93.29;97468.22;4979965;28;20045;-76
2022/02/05 05:35:06;;;;;;;90.15;40.22;;;;;;;0.74;92.53;97466.34;4993077;28;20030;-76
2022/02/05 05:37:32;;;;;;;92.03;40.22;;;;;;;0.84;91.85;97473.09;5000482;28;20061;-75
2022/02/05 05:39:58;;;;;;;91.18;40.85;;;;;;;0.84;91.15;97462.56;4987031;28;20033;-75
2022/02/05 05:42:27;;;;;;;98.05;41.85;;;;;;;0.98;89.38;97460.47;4994830;28;20042;-76
2022/02/05 05:52:19;;;;;;;160.25;64.82;;;;;;;0.73;91.65;97473.38;4998047;28;20544;-76
2022/02/05 05:54:46;;;;;;;132.35;54.88;;;;;;;0.86;92.06;97487.09;4993815;28;20108;-76
2022/02/05 05:57:11;;;;;;;129.57;55.85;;;;;;;0.89;91.61;97481.75;4978188;28;20498;-76
2022/02/05 05:59:41;;;;;;;125.78;53.17;;;;;;;0.88;92.58;97494.06;4979165;28;20026;-75
2022/02/05 06:02:07;;;;;;;114.85;51.08;;;;;;;0.87;92.40;97492.31;4994278;28;20029;-76
2022/02/05 06:04:33;;;;;;;123.50;53.03;;;;;;;0.96;92.93;97488.56;4997184;28;20555;-75
2022/02/05 06:06:59;;;;;;;130.10;56.30;;;;;;;0.97;92.40;97495.59;5007049;28;20029;-76
2022/02/05 06:09:24;;;;;;;191.57;80.55;;;;;;;1.00;91.58;97503.41;4991617;28;20029;-76
2022/02/05 06:11:50;;;;;;;193.43;84.55;;;;;;;1.07;91.17;97497.09;4992341;28;20517;-74
2022/02/05 06:14:20;;;;;;;194.00;84.75;;;;;;;1.11;90.65;97496.09;4976741;28;20049;-81
2022/02/05 06:16:50;;;;;;;161.20;67.20;;;;;;;1.16;88.85;97509.16;5006834;28;20588;-80
2022/02/05 06:19:17;;;;;;;140.05;60.22;;;;;;;1.11;88.29;97517.16;4990093;28;20030;-79
2022/02/05 06:21:43;;;;;;;89.97;42.97;;;;;;;0.93;86.38;97491.28;4966424;28;20049;-81
2022/02/05 06:24:08;;;;;;;111.82;51.58;;;;;;;1.14;86.92;97503.06;4981219;28;20038;-80
2022/02/05 06:26:34;;;;;;;86.70;37.83;;;;;;;1.17;85.97;97513.53;4988580;28;20401;-81
2022/02/05 06:29:00;;;;;;;82.85;37.38;;;;;;;1.11;84.70;97532.13;4995458;28;20045;-79
2022/02/05 06:31:25;;;;;;;90.50;40.10;;;;;;;1.02;85.44;97538.44;4999590;28;20029;-78
2022/02/05 06:33:51;;;;;;;88.07;41.08;;;;;;;0.96;85.89;97541.22;5016060;28;20025;-79
2022/02/05 06:36:16;;;;;;;90.10;41.22;;;;;;;1.47;85.61;97539.94;5016655;28;20096;-79
2022/02/05 06:38:42;;;;;;;95.28;43.67;;;;;;;2.98;77.65;97517.88;5017555;28;20025;-79
2022/02/05 06:41:07;;;;;;;94.20;43.28;;;;;;;4.12;69.83;97539.41;5016117;28;20033;-80
2022/02/05 06:43:33;;;;;;;172.18;70.63;;;;;;;4.91;66.36;97521.34;5015511;28;20034;-80
2022/02/05 06:45:59;;;;;;;105.95;49.33;;;;;;;5.74;62.33;97522.28;5014747;28;20057;-80
2022/02/05 06:48:24;;;;;;;108.45;51.47;;;;;;;6.48;59.46;97534.03;5015450;28;20029;-79
2022/02/05 06:50:50;;;;;;;98.18;46.03;;;;;;;7.27;55.46;97500.97;4996196;28;20049;-79
2022/02/05 06:53:15;;;;;;;111.65;54.45;;;;;;;7.21;55.56;97503.94;4998806;28;20029;-80
2022/02/05 06:55:41;;;;;;;102.00;54.35;;;;;;;8.41;52.78;97502.09;5013847;28;20024;-75
2022/02/05 06:58:07;;;;;;;136.27;67.45;;;;;;;8.89;49.78;97487.03;5017154;28;20370;-83
2022/02/05 07:00:32;;;;;;;122.15;63.78;;;;;;;9.14;48.98;97493.53;4997752;28;20401;-82
2022/02/05 07:02:58;;;;;;;119.57;60.95;;;;;;;9.73;47.58;97497.19;5015870;28;20120;-84
2022/02/05 07:05:24;;;;;;;130.25;66.07;;;;;;;10.02;46.60;97482.97;5001068;28;20063;-76
2022/02/05 07:07:50;;;;;;;143.45;75.72;;;;;;;10.98;44.49;97479.63;5014779;28;20033;-84
2022/02/05 07:10:16;;;;;;;160.30;83.78;;;;;;;11.40;43.69;97475.00;5018178;28;20025;-84
2022/02/05 07:15:22;;;;;;;165.73;89.38;;;;;;;11.96;42.71;97481.06;5015694;28;20071;-84
2022/02/05 07:18:12;;;;;;;160.55;86.03;;;;;;;12.78;41.24;97454.63;4997613;28;20038;-85
2022/02/05 07:20:50;;;;;;;146.45;76.40;;;;;;;11.93;42.11;97481.28;5016279;28;20452;-85
2022/02/05 07:31:19;;;;;;;108.00;56.05;;;;;;;12.33;41.20;97457.91;4996395;28;20083;-84
2022/02/05 07:33:46;;;;;;;102.85;56.22;;;;;;;12.66;41.02;97468.94;4993339;28;20033;-84
2022/02/05 07:36:13;;;;;;;141.52;73.10;;;;;;;12.43;41.01;97461.63;4991528;28;20082;-84
2022/02/05 07:38:39;;;;;;;141.73;69.38;;;;;;;12.49;41.34;97469.25;4992781;28;20117;-74
2022/02/05 07:41:05;;;;;;;104.43;55.45;;;;;;;12.39;41.03;97469.06;4991785;28;20129;-77
2022/02/05 07:43:35;;;;;;;112.35;59.97;;;;;;;12.63;40.91;97477.19;5011642;28;20573;-76
2022/02/05 07:46:02;;;;;;;158.48;81.30;;;;;;;13.77;38.82;97466.94;4967075;28;20069;-76
2022/02/05 07:48:28;;;;;;;174.15;91.57;;;;;;;13.40;39.05;97468.84;4972817;28;20379;-75
2022/02/05 07:50:54;;;;;;;182.55;95.43;;;;;;;14.16;38.03;97451.38;4981548;28;20046;-77
2022/02/05 07:53:19;;;;;;;164.38;89.85;;;;;;;15.04;36.86;97451.44;4985172;28;20446;-75
2022/02/05 07:55:45;;;;;;;184.90;102.15;;;;;;;13.96;37.56;97458.31;4985959;28;20054;-76
2022/02/05 07:58:11;;;;;;;172.63;92.00;;;;;;;14.50;37.22;97462.13;4974521;28;20050;-76
2022/02/05 08:00:37;;;;;;;151.70;85.45;;;;;;;13.87;38.22;97473.31;4990500;28;20109;-75
2022/02/05 08:03:03;;;;;;;141.35;77.15;;;;;;;13.52;38.20;97467.06;5006749;28;20125;-74
2022/02/05 08:05:28;;;;;;;120.65;61.40;;;;;;;14.10;37.21;97458.97;4989185;28;20029;-74
2022/02/05 08:07:54;;;;;;;108.78;57.20;;;;;;;14.07;37.34;97461.91;5006802;28;20053;-74
2022/02/05 08:10:27;;;;;;;96.72;53.47;;;;;;;15.02;35.52;97453.41;4993845;28;20029;-75
2022/02/05 08:12:56;;;;;;;232.38;116.72;;;;;;;15.51;35.40;97449.41;4995128;28;20030;-75
2022/02/05 08:15:24;;;;;;;264.60;129.73;;;;;;;16.59;33.79;97443.69;4994499;28;20013;-75
2022/02/05 08:17:50;;;;;;;154.13;87.28;;;;;;;17.60;32.46;97431.78;4978806;28;20014;-75
2022/02/05 08:20:15;;;;;;;185.32;100.53;;;;;;;17.36;33.11;97425.88;4991634;28;20406;-76
2022/02/05 08:22:41;;;;;;;131.68;78.82;;;;;;;17.25;32.71;97431.41;4982681;28;20021;-75
2022/02/05 08:25:07;;;;;;;138.30;78.82;;;;;;;18.26;31.46;97424.63;4993813;28;20046;-74
2022/02/05 08:27:33;;;;;;;137.90;78.88;;;;;;;18.48;31.07;97422.56;4971781;28;20050;-75
2022/02/05 08:30:03;;;;;;;126.38;73.07;;;;;;;17.83;31.83;97427.81;5011547;28;20022;-75
2022/02/05 08:32:29;;;;;;;123.85;77.93;;;;;;;17.43;32.17;97445.97;5011587;28;20029;-76
2022/02/05 08:34:57;;;;;;;127.47;73.97;;;;;;;16.78;33.44;97459.97;5011455;28;20029;-75
2022/02/05 08:37:23;;;;;;;124.97;72.25;;;;;;;14.64;36.37;97467.25;4992441;28;20476;-75
2022/02/05 08:39:48;;;;;;;111.75;59.10;;;;;;;14.73;36.89;97478.28;4993447;28;20061;-75
2022/02/05 08:42:14;;;;;;;77.47;43.35;;;;;;;14.40;37.24;97471.88;4993172;28;20486;-76
2022/02/05 08:44:40;;;;;;;56.60;33.50;;;;;;;12.18;41.73;97510.78;4993379;28;20033;-76
2022/02/05 08:47:05;;;;;;;55.20;29.83;;;;;;;13.93;38.95;97510.53;4993123;28;20045;-76
2022/02/05 08:49:31;;;;;;;45.97;24.58;;;;;;;14.88;37.47;97512.94;4992800;28;20021;-75
2022/02/05 08:52:00;;;;;;;45.60;21.98;;;;;;;15.87;36.33;97507.50;4977322;28;20057;-74
2022/02/05 08:54:28;;;;;;;45.22;22.75;;;;;;;17.21;33.94;97478.63;4994570;28;20486;-76
2022/02/05 08:56:54;;;;;;;47.95;22.63;;;;;;;17.63;34.05;97490.16;4991827;28;20473;-76
2022/02/05 08:59:21;;;;;;;44.47;24.55;;;;;;;17.30;34.42;97488.63;4977056;28;20032;-75
2022/02/05 09:02:01;;;;;;;42.03;21.38;;;;;;;17.44;34.35;97480.13;4992938;28;20026;-73
2022/02/05 09:04:38;;;;;;;41.65;23.42;;;;;;;19.21;33.47;97471.41;4995513;28;20026;-74
2022/02/05 09:07:04;;;;;;;39.47;23.45;;;;;;;19.46;30.08;97453.59;4994732;28;20022;-73
2022/02/05 09:12:30;;;;;;;47.30;25.92;;;;;;;19.39;29.90;97458.75;5010518;28;20053;-74
2022/02/05 09:14:45;;;;;;;107.93;51.22;;;;;;;19.43;30.25;97464.75;4993864;28;20042;-74
2022/02/05 09:17:11;;;;;;;46.45;26.88;;;;;;;19.78;29.56;97459.34;4977197;28;20072;-75
2022/02/05 09:19:36;;;;;;;47.75;27.77;;;;;;;19.08;31.00;97451.03;4998843;28;20057;-75
2022/02/05 09:22:04;;;;;;;60.20;34.67;;;;;;;18.40;31.25;97453.94;4999776;28;20041;-75
2022/02/05 09:24:30;;;;;;;59.92;35.15;;;;;;;18.56;31.07;97456.09;4999529;28;20465;-76
2022/02/05 09:27:00;;;;;;;60.63;35.58;;;;;;;19.78;29.80;97459.34;4983081;28;20065;-75
2022/02/05 09:29:26;;;;;;;57.55;35.53;;;;;;;20.92;28.36;97445.69;4982641;28;20029;-75
2022/02/05 09:31:52;;;;;;;30.98;19.30;;;;;;;20.32;29.13;97449.34;4990538;28;20116;-75
2022/02/05 09:34:18;;;;;;;31.77;16.30;;;;;;;19.43;30.06;97453.88;4981710;28;20112;-73
2022/02/05 09:36:44;;;;;;;33.20;14.98;;;;;;;19.42;29.27;97442.19;4997190;28;20125;-73
2022/02/05 09:39:12;;;;;;;21.55;10.70;;;;;;;19.80;28.28;97434.78;5014839;28;20112;-74
2022/02/05 09:41:39;;;;;;;14.20;9.07;;;;;;;20.26;27.62;97417.38;4997555;28;20128;-74
2022/02/05 09:44:05;;;;;;;23.98;14.25;;;;;;;21.27;26.16;97416.63;4981309;28;20036;-75
2022/02/05 09:46:31;;;;;;;25.20;15.95;;;;;;;21.71;26.37;97425.44;4993582;28;20084;-75
2022/02/05 09:48:57;;;;;;;20.83;13.23;;;;;;;21.66;26.86;97422.38;4996921;28;20025;-75
2022/02/05 09:51:31;;;;;;;18.55;9.30;;;;;;;21.83;25.98;97414.06;4997401;28;20030;-75
2022/02/05 09:53:58;;;;;;;17.75;9.52;;;;;;;22.83;23.84;97401.94;4997527;28;20026;-74
2022/02/05 09:56:26;;;;;;;18.30;11.45;;;;;;;20.48;25.56;97400.56;5013858;28;20033;-74
2022/02/05 09:58:53;;;;;;;31.02;21.23;;;;;;;20.23;26.61;97409.53;5014405;28;20062;-74
2022/02/05 10:01:25;;;;;;;19.10;13.43;;;;;;;20.80;25.54;97402.59;4996762;28;20026;-74
2022/02/05 10:03:55;;;;;;;16.23;10.05;;;;;;;20.83;25.25;97400.41;4998799;28;20034;-74
2022/02/05 10:06:29;;;;;;;35.17;25.17;;;;;;;20.85;25.80;97400.28;4996626;28;20033;-75
2022/02/05 10:09:00;;;;;;;27.20;16.70;;;;;;;20.86;26.51;97393.78;5014341;28;20029;-74
2022/02/05 10:11:29;;;;;;;37.50;16.70;;;;;;;22.51;25.51;97406.44;5013806;28;20026;-74
2022/02/05 10:14:15;;;;;;;32.00;18.10;;;;;;;23.83;23.40;97388.34;4998747;28;20287;-75
2022/02/05 10:16:41;;;;;;;27.08;17.05;;;;;;;22.94;23.67;97379.75;5013863;28;20127;-74
2022/02/05 10:19:07;;;;;;;28.80;16.42;;;;;;;22.83;23.98;97386.41;5014791;28;20449;-74
2022/02/05 10:21:32;;;;;;;29.52;15.98;;;;;;;23.31;23.64;97395.44;4998588;28;20347;-74
2022/02/05 10:24:04;;;;;;;36.28;17.20;;;;;;;22.67;23.71;97389.22;4999742;28;20104;-75
2022/02/05 10:26:32;;;;;;;39.63;26.40;;;;;;;21.36;25.23;97386.56;4999341;28;20053;-74
2022/02/05 10:29:18;;;;;;;35.55;18.92;;;;;;;22.26;25.31;97391.13;5012325;28;20053;-74
2022/02/05 10:31:56;;;;;;;37.33;19.25;;;;;;;23.26;24.94;97389.69;4984567;28;20019;-74
2022/02/05 10:34:23;;;;;;;36.40;16.75;;;;;;;22.89;25.71;97388.44;5007056;28;20410;-74
2022/02/05 10:37:21;;;;;;;24.92;14.90;;;;;;;23.06;24.40;97379.19;5000745;28;20022;-75
2022/02/05 10:40:19;;;;;;;31.00;12.65;;;;;;;24.27;24.17;97372.97;4996287;28;20474;-74
2022/02/05 10:45:51;;;;;;;10.93;6.57;;;;;;;24.22;22.44;97364.47;4994611;28;20088;-74
2022/02/05 10:48:21;;;;;;;11.10;6.05;;;;;;;24.44;22.62;97361.88;4986291;28;20041;-74
2022/02/05 10:50:49;;;;;;;11.50;4.88;;;;;;;24.34;22.66;97361.28;4992585;28;20095;-74
2022/02/05 10:53:27;;;;;;;7.30;4.70;;;;;;;24.38;21.64;97351.69;5008034;28;20025;-74
2022/02/05 10:56:02;;;;;;;16.13;4.03;;;;;;;23.85;21.95;97358.94;4998737;28;20040;-74
2022/02/05 11:07:02;;;;;;;17.00;3.33;;;;;;;21.48;24.30;97349.84;4999459;28;20068;-72
2022/02/05 11:09:28;;;;;;;8.65;3.40;;;;;;;22.54;23.59;97347.97;5005923;28;20312;-72
2022/02/05 11:18:00;;;;;;;;;;;;;;;24.08;22.09;97337.94;5032389;28;20040;-73
2022/02/05 11:20:18;;;;;;;9.13;3.88;;;;;;;23.74;22.04;97334.81;5023163;28;19921;-74
2022/02/05 11:22:50;;;;;;;14.85;5.85;;;;;;;23.72;22.42;97331.38;5015837;28;20112;-72
2022/02/05 11:25:17;;;;;;;7.72;3.95;;;;;;;24.06;21.57;97328.19;4993038;28;20414;-73
2022/02/05 11:27:46;;;;;;;10.10;4.90;;;;;;;24.50;22.29;97328.31;4989228;28;20058;-72
2022/02/05 11:30:26;;;;;;;5.68;2.75;;;;;;;24.27;21.53;97326.50;4992338;28;20034;-71
2022/02/05 11:32:53;;;;;;;4.65;2.20;;;;;;;24.37;21.22;97314.44;4994979;28;20494;-72
2022/02/05 11:35:30;;;;;;;5.82;3.00;;;;;;;24.33;21.39;97322.19;4992555;28;20030;-72
2022/02/05 11:37:58;;;;;;;7.90;3.40;;;;;;;23.79;21.64;97310.50;4992545;28;20031;-73
2022/02/05 11:40:43;;;;;;;13.73;8.27;;;;;;;24.11;22.01;97326.66;5002976;28;20486;-72
2022/02/05 11:43:20;;;;;;;6.40;3.53;;;;;;;24.89;21.76;97314.41;5011298;28;20036;-74
2022/02/05 11:46:04;;;;;;;14.43;6.53;;;;;;;22.73;23.01;97314.03;4995815;28;20049;-73
2022/02/05 11:48:36;;;;;;;7.85;4.13;;;;;;;20.78;25.20;97325.78;5007338;28;20037;-72
2022/02/05 11:51:21;;;;;;;18.60;8.35;;;;;;;19.63;27.02;97335.19;5002193;28;20084;-72
2022/02/05 11:53:59;;;;;;;16.63;7.35;;;;;;;19.92;26.87;97331.22;5011437;28;20486;-74
2022/02/05 11:59:15;;;;;;;6.18;3.70;;;;;;;18.56;27.27;97338.72;5012265;28;20026;-73
2022/02/05 12:01:41;;;;;;;7.53;2.88;;;;;;;17.40;28.78;97345.34;4991309;28;20028;-73
2022/02/05 12:04:12;;;;;;;8.07;4.78;;;;;;;17.49;29.97;97352.59;4970323;28;20062;-73
2022/02/05 12:07:05;;;;;;;37.57;16.77;;;;;;;17.00;30.37;97350.84;4994866;28;20096;-74
2022/02/05 12:09:45;;;;;;;16.95;8.32;;;;;;;16.51;30.67;97355.22;4985788;28;20430;-73
2022/02/05 12:12:22;;;;;;;11.75;5.35;;;;;;;16.55;30.53;97350.44;4991037;28;20049;-73
2022/02/05 12:15:07;;;;;;;16.73;6.10;;;;;;;17.09;29.94;97352.69;4995238;28;20022;-73
2022/02/05 12:17:58;;;;;;;43.92;22.73;;;;;;;18.02;28.78;97350.28;5004060;28;20026;-73
2022/02/05 12:20:30;;;;;;;45.08;28.65;;;;;;;18.40;28.04;97333.91;5009188;28;20026;-73
2022/02/05 12:25:30;;;;;;;9.25;5.30;;;;;;;18.11;28.60;97333.16;4994732;28;20068;-73
2022/02/05 12:27:55;;;;;;;12.60;4.97;;;;;;;19.61;28.22;97348.06;4994070;28;20105;-73
2022/02/05 12:30:29;;;;;;;9.98;3.40;;;;;;;20.18;26.48;97331.19;4993978;28;20033;-74
2022/02/05 12:32:55;;;;;;;14.57;8.05;;;;;;;19.81;27.35;97342.31;4993861;28;20026;-73
2022/02/05 12:35:21;;;;;;;10.02;6.43;;;;;;;20.17;26.78;97347.69;5011237;28;20026;-73
2022/02/05 12:37:49;;;;;;;15.32;7.43;;;;;;;21.40;25.46;97340.81;4990503;28;20034;-73
2022/02/05 12:40:15;;;;;;;9.88;4.40;;;;;;;21.48;25.07;97344.41;4990397;28;20399;-73
2022/02/05 12:42:42;;;;;;;14.43;6.00;;;;;;;21.28;25.46;97332.13;4990922;28;20041;-73
2022/02/05 12:45:09;;;;;;;19.65;5.82;;;;;;;20.71;25.94;97343.75;4990587;28;20034;-73
2022/02/05 12:47:40;;;;;;;13.30;6.50;;;;;;;19.70;27.29;97358.84;4993868;28;20022;-73
2022/02/05 12:50:10;;;;;;;11.85;7.30;;;;;;;18.82;28.12;97350.59;4993857;28;20041;-73
2022/02/05 12:52:36;;;;;;;14.65;6.28;;;;;;;18.97;28.68;97350.94;4993292;28;20029;-73
2022/02/05 12:55:03;;;;;;;13.68;6.00;;;;;;;18.99;28.15;97351.63;4978865;28;20034;-74
2022/02/05 12:57:30;;;;;;;20.42;5.40;;;;;;;18.18;28.85;97343.25;4994957;28;20026;-74
2022/02/05 13:00:11;;;;;;;10.98;6.70;;;;;;;17.58;29.69;97343.66;4993612;28;20413;-74
2022/02/05 13:02:37;;;;;;;14.30;7.75;;;;;;;16.58;31.50;97358.28;4974002;28;20022;-73
2022/02/05 13:05:03;;;;;;;14.93;6.50;;;;;;;16.35;32.05;97352.16;4974143;28;20034;-72
2022/02/05 13:07:52;;;;;;;18.80;9.07;;;;;;;16.06;32.28;97359.25;4977258;28;20030;-73
2022/02/05 13:10:21;;;;;;;19.38;9.35;;;;;;;15.98;32.39;97342.88;4978941;28;20014;-73
2022/02/05 13:12:51;;;;;;;13.25;7.38;;;;;;;15.95;32.37;97356.63;4986779;28;20544;-73
2022/02/05 13:15:23;;;;;;;11.32;6.38;;;;;;;15.80;32.30;97347.16;4992533;28;20108;-73
2022/02/05 13:34:18;;;;;;;15.80;7.68;;;;;;;19.11;28.61;97344.97;4984109;28;20052;-73
2022/02/05 13:39:27;;;;;;;16.15;7.70;;;;;;;19.91;27.73;97325.94;4983767;28;20084;-73
2022/02/05 13:42:01;;;;;;;16.23;9.40;;;;;;;20.22;26.94;97318.16;5002906;28;20053;-74
2022/02/05 13:45:09;;;;;;;10.77;5.47;;;;;;;20.52;26.71;97337.56;4998316;28;20544;-73
2022/02/05 13:47:55;;;;;;;11.90;6.22;;;;;;;20.76;26.28;97338.72;5002420;28;20030;-73
2022/02/05 13:50:23;;;;;;;9.23;5.43;;;;;;;20.72;26.04;97342.75;4979173;28;20038;-73
2022/02/05 13:52:54;;;;;;;12.88;6.30;;;;;;;20.49;26.80;97345.19;4985801;28;20022;-73
2022/02/05 13:55:26;;;;;;;11.40;5.32;;;;;;;20.60;26.13;97349.50;4997680;28;20116;-74
2022/02/05 13:58:06;;;;;;;11.85;5.97;;;;;;;19.94;27.24;97339.19;4980662;28;20483;-73
2022/02/05 14:00:54;;;;;;;14.50;7.65;;;;;;;19.00;27.97;97343.34;4987233;28;20132;-73
2022/02/05 14:03:32;;;;;;;16.05;6.40;;;;;;;19.06;27.97;97344.59;4979570;28;20049;-73
2022/02/05 14:06:05;;;;;;;20.52;7.85;;;;;;;18.58;29.37;97355.72;4993263;28;20057;-73
2022/02/05 14:08:41;;;;;;;19.38;7.35;;;;;;;18.78;28.53;97350.03;4983425;28;20037;-72
2022/02/05 14:11:08;;;;;;;19.23;9.40;;;;;;;18.36;30.08;97351.47;4988912;28;20034;-74
2022/02/05 14:13:34;;;;;;;15.07;7.53;;;;;;;17.28;30.65;97353.59;4985709;28;20084;-72
2022/02/05 14:16:01;;;;;;;15.27;7.78;;;;;;;16.74;31.96;97362.16;4971664;28;20036;-73
2022/02/05 14:18:29;;;;;;;13.85;7.20;;;;;;;16.57;31.96;97360.09;4973674;28;20045;-74
2022/02/05 14:20:57;;;;;;;21.70;8.77;;;;;;;15.90;33.35;97348.09;4969382;28;20030;-74
2022/02/05 14:23:28;;;;;;;16.15;9.50;;;;;;;15.03;34.49;97363.53;4985573;28;20026;-75
2022/02/05 14:26:07;;;;;;;22.13;8.40;;;;;;;14.79;35.02;97372.78;5009464;28;20034;-75
2022/02/05 14:28:44;;;;;;;16.73;9.07;;;;;;;14.18;36.50;97380.34;5002799;28;20091;-73
2022/02/05 14:31:18;;;;;;;17.70;9.57;;;;;;;14.12;36.74;97379.00;5010082;28;20117;-75
2022/02/05 14:34:43;;;;;;;20.95;9.35;;;;;;;13.84;37.03;97392.06;5008980;28;20034;-79
2022/02/05 14:43:32;;;;;;;31.35;10.73;;;;;;;13.03;38.38;97365.09;4965062;28;20828;-85